Time;durP1;ratioP1;P1;durP2;ratioP2;P2;SDS_P1;SDS_P2;PMS_P1;PMS_P2;Temp;Humidity;BMP_temperature;BMP_pressure;BME280_temperature;BME280_humidity;BME280_pressure;Samples;Min_cycle;Max_cycle;Signal;HPM_P1;HPM_P2
2022/02/20 00:00:50;;;;;;;22.32;6.60;;;;;;;2.32;74.05;100367.59;1661360;86;21036;-74
2022/02/20 00:03:17;;;;;;;18.00;6.65;;;;;;;2.27;74.09;100356.09;1661325;86;21100;-74
2022/02/20 00:05:45;;;;;;;22.27;8.50;;;;;;;2.25;74.22;100369.79;1661312;86;21073;-74
2022/02/20 00:08:11;;;;;;;18.15;6.97;;;;;;;2.21;74.30;100360.95;1661145;86;21822;-74
2022/02/20 00:10:38;;;;;;;13.55;6.83;;;;;;;2.20;74.38;100372.16;1661233;86;21131;-74
2022/02/20 00:13:05;;;;;;;14.58;5.55;;;;;;;2.14;74.40;100364.06;1661316;85;21107;-75
2022/02/20 00:15:33;;;;;;;20.82;7.67;;;;;;;2.13;74.51;100365.73;1661370;86;21229;-74
2022/02/20 00:18:01;;;;;;;33.00;11.10;;;;;;;2.11;74.53;100366.48;1661364;86;21632;-75
2022/02/20 00:20:32;;;;;;;13.68;6.30;;;;;;;2.08;74.59;100361.12;1661435;85;21790;-75
2022/02/20 00:23:02;;;;;;;14.18;5.83;;;;;;;2.04;74.63;100365.25;1661270;85;21144;-75
2022/02/20 00:25:34;;;;;;;15.45;7.03;;;;;;;2.00;74.73;100361.12;1661509;86;21087;-75
2022/02/20 00:28:07;;;;;;;19.48;8.25;;;;;;;1.97;74.77;100355.77;1661097;85;21694;-75
2022/02/20 00:30:30;;;;;;;20.62;6.50;;;;;;;1.92;74.84;100342.14;1660996;84;21057;-75
2022/02/20 00:33:00;;;;;;;21.95;10.48;;;;;;;1.88;74.85;100346.69;1661038;85;21903;-75
2022/02/20 00:35:28;;;;;;;18.40;7.53;;;;;;;1.82;74.88;100354.54;1661095;86;21162;-75
2022/02/20 00:37:55;;;;;;;24.67;8.83;;;;;;;1.77;74.98;100348.23;1660894;85;21154;-75
2022/02/20 00:40:22;;;;;;;16.12;6.72;;;;;;;1.73;75.08;100341.98;1661334;86;21562;-75
2022/02/20 00:42:49;;;;;;;16.87;5.50;;;;;;;1.66;75.08;100340.75;1661394;85;21096;-75
2022/02/20 00:45:15;;;;;;;19.62;7.47;;;;;;;1.64;75.19;100338.89;1661458;86;22619;-75
2022/02/20 00:47:42;;;;;;;17.50;7.17;;;;;;;1.60;75.25;100343.44;1661407;85;21092;-75
2022/02/20 00:50:10;;;;;;;19.77;6.42;;;;;;;1.57;75.31;100341.96;1661448;85;21578;-74
2022/02/20 00:52:36;;;;;;;24.27;10.68;;;;;;;1.53;75.39;100339.60;1661492;85;21107;-74
2022/02/20 00:55:04;;;;;;;17.52;6.87;;;;;;;1.50;75.46;100332.94;1661515;86;21144;-74
2022/02/20 00:57:31;;;;;;;16.32;6.37;;;;;;;1.52;75.50;100341.69;1661712;86;22449;-75
2022/02/20 00:59:57;;;;;;;13.88;5.40;;;;;;;1.49;75.55;100344.14;1661444;86;21569;-74
2022/02/20 01:02:24;;;;;;;17.15;5.60;;;;;;;1.47;75.60;100340.16;1661588;86;21123;-74
2022/02/20 01:04:51;;;;;;;11.03;4.80;;;;;;;1.47;75.63;100334.97;1661346;86;21554;-75
2022/02/20 01:07:18;;;;;;;16.02;6.58;;;;;;;1.46;75.70;100336.18;1661525;85;21111;-74
2022/02/20 01:09:45;;;;;;;15.65;5.45;;;;;;;1.44;75.68;100333.91;1661400;86;21741;-74
2022/02/20 01:12:12;;;;;;;18.70;5.12;;;;;;;1.45;75.74;100337.00;1661452;86;21692;-74
2022/02/20 01:14:38;;;;;;;15.90;5.00;;;;;;;1.45;75.78;100333.11;1661392;85;21111;-75
2022/02/20 01:17:05;;;;;;;20.57;6.87;;;;;;;1.47;75.82;100329.78;1661220;86;21115;-74
2022/02/20 01:19:32;;;;;;;13.13;5.28;;;;;;;1.47;75.81;100328.91;1661454;86;21033;-74
2022/02/20 01:21:58;;;;;;;16.07;5.45;;;;;;;1.47;75.80;100327.19;1661349;86;21761;-75
2022/02/20 01:24:25;;;;;;;14.73;4.90;;;;;;;1.48;75.80;100315.11;1661452;85;21071;-75
2022/02/20 01:26:51;;;;;;;17.02;7.22;;;;;;;1.47;75.78;100306.44;1661480;86;21075;-75
2022/02/20 01:29:18;;;;;;;14.38;5.65;;;;;;;1.46;75.74;100311.13;1661388;86;21696;-74
2022/02/20 01:31:45;;;;;;;13.95;4.58;;;;;;;1.45;75.77;100302.88;1661253;84;21589;-75
2022/02/20 01:34:12;;;;;;;17.02;6.97;;;;;;;1.48;75.81;100309.54;1661507;86;21841;-75
2022/02/20 01:36:39;;;;;;;14.38;5.45;;;;;;;1.49;75.77;100301.34;1661770;86;21151;-75
2022/02/20 01:39:05;;;;;;;10.95;4.65;;;;;;;1.49;75.77;100299.63;1661642;86;21103;-74
2022/02/20 01:41:32;;;;;;;17.40;6.10;;;;;;;1.49;75.75;100292.27;1661707;86;21134;-75
2022/02/20 01:43:59;;;;;;;14.87;5.05;;;;;;;1.50;75.75;100287.55;1661308;86;21146;-75
2022/02/20 01:46:25;;;;;;;20.08;5.12;;;;;;;1.54;75.80;100287.81;1661472;86;21928;-74
2022/02/20 01:48:52;;;;;;;12.35;4.40;;;;;;;1.55;75.74;100289.98;1661334;86;21071;-75
2022/02/20 01:51:19;;;;;;;14.15;4.47;;;;;;;1.57;75.73;100282.30;1661344;86;21597;-74
2022/02/20 01:53:45;;;;;;;12.55;4.20;;;;;;;1.58;75.71;100277.20;1661126;86;21609;-74
2022/02/20 01:56:12;;;;;;;11.88;3.90;;;;;;;1.58;75.67;100281.09;1661329;86;21131;-74
2022/02/20 01:58:40;;;;;;;10.18;4.42;;;;;;;1.59;75.66;100272.48;1638135;86;21756;-75
2022/02/20 02:01:06;;;;;;;14.58;4.12;;;;;;;1.62;75.65;100270.47;1638250;86;21107;-75
2022/02/20 02:03:34;;;;;;;10.53;4.45;;;;;;;1.62;75.64;100264.87;1661372;86;21083;-75
2022/02/20 02:06:01;;;;;;;12.00;4.87;;;;;;;1.64;75.63;100272.33;1638412;86;21095;-74
2022/02/20 02:08:27;;;;;;;11.10;5.20;;;;;;;1.67;75.58;100265.09;1661366;85;21068;-75
2022/02/20 02:10:54;;;;;;;14.58;5.95;;;;;;;1.69;75.59;100267.36;1661416;85;22594;-75
2022/02/20 02:13:21;;;;;;;14.78;5.50;;;;;;;1.71;75.53;100264.06;1661703;86;21529;-75
2022/02/20 02:15:52;;;;;;;10.75;5.03;;;;;;;1.75;75.53;100264.70;1661748;86;21088;-74
2022/02/20 02:18:19;;;;;;;16.87;6.55;;;;;;;1.77;75.45;100258.71;1661593;85;21677;-74
2022/02/20 02:20:48;;;;;;;14.63;4.83;;;;;;;1.79;75.38;100253.20;1661492;86;21016;-75
2022/02/20 02:23:19;;;;;;;13.28;5.12;;;;;;;1.80;75.35;100248.05;1661483;85;22590;-74
2022/02/20 02:25:47;;;;;;;14.70;5.40;;;;;;;1.83;75.29;100245.63;1661483;86;21162;-75
2022/02/20 02:28:14;;;;;;;10.25;4.95;;;;;;;1.86;75.23;100245.80;1661649;86;21110;-75
2022/02/20 02:30:40;;;;;;;21.02;6.40;;;;;;;1.87;75.19;100233.30;1660310;85;21044;-75
2022/02/20 02:33:07;;;;;;;17.32;6.65;;;;;;;1.92;75.15;100229.66;1658720;85;21584;-74
2022/02/20 02:35:34;;;;;;;11.68;4.92;;;;;;;1.93;75.10;100221.03;1651455;85;21866;-75
2022/02/20 02:38:34;;;;;;;16.80;6.03;;;;;;;1.96;75.03;100224.22;1651335;85;21077;-75
2022/02/20 02:41:06;;;;;;;15.80;5.90;;;;;;;1.97;74.94;100219.11;1651193;85;21104;-75
2022/02/20 02:43:34;;;;;;;16.32;5.37;;;;;;;2.01;74.87;100216.23;1651330;85;21623;-75
2022/02/20 02:46:01;;;;;;;18.17;6.67;;;;;;;2.04;74.79;100219.87;1651250;86;22103;-75
2022/02/20 02:48:27;;;;;;;15.63;4.67;;;;;;;2.05;74.72;100216.48;1651163;86;21823;-75
2022/02/20 02:50:54;;;;;;;12.55;4.70;;;;;;;2.08;74.63;100210.16;1650976;85;21081;-75
2022/02/20 02:53:21;;;;;;;17.12;5.92;;;;;;;2.11;74.55;100205.52;1651147;86;21080;-75
2022/02/20 02:55:50;;;;;;;18.32;6.33;;;;;;;2.13;74.53;100201.28;1651011;86;21192;-74
2022/02/20 02:58:19;;;;;;;19.50;6.30;;;;;;;2.14;74.48;100192.28;1650962;86;21092;-75
2022/02/20 03:00:46;;;;;;;17.70;5.22;;;;;;;2.15;74.38;100186.67;1650963;85;21780;-75
2022/02/20 03:03:13;;;;;;;17.67;5.05;;;;;;;2.17;74.31;100183.74;1650833;86;21147;-75
2022/02/20 03:05:39;;;;;;;17.73;6.42;;;;;;;2.19;74.25;100186.42;1650955;86;21037;-75
2022/02/20 03:08:06;;;;;;;14.93;5.42;;;;;;;2.20;74.26;100181.72;1650769;86;21155;-74
2022/02/20 03:10:32;;;;;;;15.43;5.58;;;;;;;2.21;74.14;100178.30;1650809;86;21111;-75
2022/02/20 03:12:59;;;;;;;13.68;4.85;;;;;;;2.23;74.12;100172.77;1650728;85;22655;-75
2022/02/20 03:15:26;;;;;;;20.40;5.95;;;;;;;2.23;74.03;100161.95;1651007;86;21589;-75
2022/02/20 03:17:52;;;;;;;15.30;5.47;;;;;;;2.24;73.97;100166.77;1651019;86;21088;-74
2022/02/20 03:20:19;;;;;;;14.40;5.20;;;;;;;2.24;73.86;100164.17;1650943;85;21056;-75
2022/02/20 03:22:45;;;;;;;15.75;4.35;;;;;;;2.23;73.81;100165.86;1650928;86;21088;-75
2022/02/20 03:25:12;;;;;;;15.78;5.28;;;;;;;2.25;73.82;100164.25;1650920;85;21766;-75
2022/02/20 03:27:39;;;;;;;15.60;5.92;;;;;;;2.25;73.73;100163.34;1650946;85;21127;-75
2022/02/20 03:30:07;;;;;;;13.15;5.50;;;;;;;2.25;73.70;100159.44;1650828;85;21156;-75
2022/02/20 03:32:34;;;;;;;13.50;4.60;;;;;;;2.25;73.63;100163.34;1650792;86;21272;-75
2022/02/20 03:35:01;;;;;;;16.85;5.67;;;;;;;2.26;73.61;100160.82;1650723;86;21092;-75
2022/02/20 03:37:28;;;;;;;11.03;5.67;;;;;;;2.25;73.51;100168.53;1651125;86;21792;-75
2022/02/20 03:39:54;;;;;;;13.70;5.15;;;;;;;2.24;73.50;100167.66;1650876;85;21095;-75
2022/02/20 03:42:21;;;;;;;16.23;5.22;;;;;;;2.25;73.47;100161.66;1651043;85;21087;-74
2022/02/20 03:44:48;;;;;;;12.65;4.95;;;;;;;2.25;73.38;100156.84;1650857;86;21093;-74
2022/02/20 03:47:15;;;;;;;13.80;5.35;;;;;;;2.23;73.36;100151.99;1650964;86;21103;-74
2022/02/20 03:49:42;;;;;;;14.25;5.83;;;;;;;2.22;73.33;100149.81;1650821;86;21814;-74
2022/02/20 03:52:09;;;;;;;16.12;5.70;;;;;;;2.21;73.30;100145.84;1650799;85;21144;-75
2022/02/20 03:54:35;;;;;;;15.65;5.20;;;;;;;2.22;73.24;100145.03;1650967;86;21233;-75
2022/02/20 03:57:02;;;;;;;12.85;5.42;;;;;;;2.20;73.19;100145.37;1650951;85;22285;-74
2022/02/20 03:59:29;;;;;;;18.20;6.10;;;;;;;2.18;73.19;100137.89;1651129;86;21144;-74
2022/02/20 04:01:55;;;;;;;19.20;7.12;;;;;;;2.17;73.15;100137.42;1650757;86;22598;-74
2022/02/20 04:04:22;;;;;;;13.20;4.90;;;;;;;2.14;73.08;100131.69;1650890;85;21111;-74
2022/02/20 04:06:51;;;;;;;13.93;5.12;;;;;;;2.12;73.05;100129.39;1650851;86;21096;-75
2022/02/20 04:09:17;;;;;;;20.17;7.05;;;;;;;2.08;73.01;100123.57;1650741;86;21144;-75
2022/02/20 04:11:44;;;;;;;16.48;6.05;;;;;;;2.06;72.97;100117.00;1650883;86;21084;-75
2022/02/20 04:14:10;;;;;;;14.45;4.90;;;;;;;2.02;73.01;100111.19;1651012;86;21778;-74
2022/02/20 04:16:37;;;;;;;12.23;5.47;;;;;;;1.99;72.98;100109.76;1651255;85;21092;-75
2022/02/20 04:19:03;;;;;;;10.32;5.15;;;;;;;1.96;72.98;100105.70;1651051;85;21112;-75
2022/02/20 04:21:30;;;;;;;11.05;5.28;;;;;;;1.92;72.95;100105.08;1651022;85;21538;-75
2022/02/20 04:23:57;;;;;;;17.70;7.03;;;;;;;1.88;72.97;100111.81;1650676;86;21088;-75
2022/02/20 04:26:23;;;;;;;16.65;4.87;;;;;;;1.85;73.00;100110.77;1650953;86;21756;-75
2022/02/20 04:28:50;;;;;;;18.00;6.35;;;;;;;1.83;73.05;100109.81;1650887;86;21147;-75
2022/02/20 04:31:17;;;;;;;18.40;7.83;;;;;;;1.79;73.06;100108.77;1652793;84;21127;-74
2022/02/20 04:33:45;;;;;;;20.12;6.15;;;;;;;1.74;73.03;100110.23;1640223;87;21556;-74
2022/02/20 04:36:12;;;;;;;20.35;7.97;;;;;;;1.70;73.03;100114.38;1640084;87;21788;-75
2022/02/20 04:38:39;;;;;;;19.85;6.92;;;;;;;1.68;73.08;100113.41;1640095;87;21775;-74
2022/02/20 04:41:05;;;;;;;15.15;6.25;;;;;;;1.64;73.06;100108.00;1639985;87;21160;-75
2022/02/20 04:43:32;;;;;;;24.50;8.50;;;;;;;1.59;73.12;100104.28;1640225;87;21631;-75
2022/02/20 04:46:00;;;;;;;17.12;6.15;;;;;;;1.55;73.16;100104.53;1640211;87;21076;-75
2022/02/20 04:48:27;;;;;;;16.02;7.47;;;;;;;1.51;73.16;100102.59;1640089;86;21098;-75
2022/02/20 04:50:54;;;;;;;19.57;6.53;;;;;;;1.47;73.22;100099.38;1640074;87;22015;-75
2022/02/20 04:53:21;;;;;;;15.58;6.10;;;;;;;1.44;73.28;100092.72;1640345;87;21107;-75
2022/02/20 04:55:48;;;;;;;27.45;9.98;;;;;;;1.41;73.33;100086.07;1640099;87;21068;-75
2022/02/20 04:58:14;;;;;;;16.97;5.83;;;;;;;1.36;73.37;100081.96;1640347;86;21080;-75
2022/02/20 05:00:41;;;;;;;20.02;8.70;;;;;;;1.33;73.38;100080.50;1640531;87;21108;-75
2022/02/20 05:03:08;;;;;;;17.87;7.05;;;;;;;1.33;73.47;100080.50;1640593;86;21774;-75
2022/02/20 05:05:37;;;;;;;17.70;7.15;;;;;;;1.30;73.49;100081.66;1640588;86;21101;-75
2022/02/20 05:08:04;;;;;;;17.42;8.08;;;;;;;1.27;73.52;100083.66;1640633;86;21089;-75
2022/02/20 05:10:30;;;;;;;13.38;5.22;;;;;;;1.26;73.61;100084.50;1640354;87;21528;-75
2022/02/20 05:12:57;;;;;;;20.05;7.33;;;;;;;1.26;73.64;100078.40;1640276;87;21090;-75
2022/02/20 05:15:24;;;;;;;19.00;6.60;;;;;;;1.26;73.73;100083.20;1640500;87;21823;-75
2022/02/20 05:17:50;;;;;;;13.08;5.58;;;;;;;1.28;73.78;100086.76;1640259;87;21025;-75
2022/02/20 05:20:17;;;;;;;13.35;6.58;;;;;;;1.27;73.74;100085.38;1640491;86;21092;-74
2022/02/20 05:22:43;;;;;;;15.63;6.08;;;;;;;1.22;73.76;100076.47;1640361;86;21068;-74
2022/02/20 05:25:10;;;;;;;17.67;6.35;;;;;;;1.24;73.81;100080.02;1640214;86;21140;-75
2022/02/20 05:27:37;;;;;;;15.98;5.40;;;;;;;1.24;73.81;100080.02;1640377;86;21778;-75
2022/02/20 05:30:04;;;;;;;12.55;4.45;;;;;;;1.22;73.84;100083.86;1640014;87;21081;-75
2022/02/20 05:32:32;;;;;;;14.90;5.50;;;;;;;1.22;73.86;100079.06;1634505;87;21094;-75
2022/02/20 05:34:59;;;;;;;14.47;5.22;;;;;;;1.22;73.87;100079.06;1630404;86;21089;-75
2022/02/20 05:37:26;;;;;;;17.40;6.30;;;;;;;1.19;73.92;100077.63;1650771;86;21152;-75
2022/02/20 05:39:53;;;;;;;12.95;5.65;;;;;;;1.17;73.93;100078.84;1650882;86;21759;-75
2022/02/20 05:42:19;;;;;;;12.80;4.75;;;;;;;1.16;73.96;100073.16;1651135;86;21180;-75
2022/02/20 05:44:46;;;;;;;12.30;4.92;;;;;;;1.16;74.04;100076.66;1651154;86;21698;-75
2022/02/20 05:47:14;;;;;;;14.50;5.85;;;;;;;1.15;74.07;100069.67;1650917;86;21172;-75
2022/02/20 05:49:40;;;;;;;11.75;4.53;;;;;;;1.15;74.09;100077.45;1651213;86;21136;-75
2022/02/20 05:52:07;;;;;;;13.60;5.72;;;;;;;1.16;74.12;100070.56;1651047;86;21769;-75
2022/02/20 05:54:34;;;;;;;16.52;6.17;;;;;;;1.20;74.16;100074.20;1651222;86;21080;-75
2022/02/20 05:57:01;;;;;;;19.65;7.67;;;;;;;1.23;74.23;100073.08;1651200;86;21210;-75
2022/02/20 05:59:27;;;;;;;21.75;8.33;;;;;;;1.29;74.31;100068.19;1651272;85;21570;-75
2022/02/20 06:01:54;;;;;;;14.28;5.50;;;;;;;1.35;74.34;100070.70;1651260;86;21100;-75
2022/02/20 06:04:24;;;;;;;30.37;10.38;;;;;;;1.42;74.33;100062.81;1651072;86;21745;-75
2022/02/20 06:06:50;;;;;;;22.30;9.73;;;;;;;1.50;74.22;100064.49;1651034;86;21076;-75
2022/02/20 06:09:17;;;;;;;20.52;7.58;;;;;;;1.52;74.10;100062.48;1651029;86;21108;-75
2022/02/20 06:11:43;;;;;;;26.87;9.75;;;;;;;1.52;74.00;100064.16;1650792;85;21144;-75
2022/02/20 06:14:10;;;;;;;12.60;6.12;;;;;;;1.52;73.93;100065.45;1650989;85;21084;-75
2022/02/20 06:16:37;;;;;;;19.05;7.80;;;;;;;1.52;73.93;100071.94;1651098;86;21766;-75
2022/02/20 06:19:03;;;;;;;26.42;10.23;;;;;;;1.53;73.91;100069.84;1650896;85;21206;-75
2022/02/20 06:21:30;;;;;;;20.10;8.13;;;;;;;1.56;73.94;100079.09;1650918;86;21385;-75
2022/02/20 06:23:56;;;;;;;22.82;7.50;;;;;;;1.57;73.93;100082.15;1650832;86;21638;-75
2022/02/20 06:26:23;;;;;;;27.48;8.83;;;;;;;1.60;73.95;100083.61;1651106;85;21080;-75
2022/02/20 06:28:49;;;;;;;20.17;6.95;;;;;;;1.63;74.00;100074.66;1651067;85;22554;-75
2022/02/20 06:31:17;;;;;;;19.17;7.87;;;;;;;1.68;73.96;100078.80;1650581;86;21573;-75
2022/02/20 06:33:47;;;;;;;28.32;10.95;;;;;;;1.71;73.94;100081.56;1667042;85;21417;-75
2022/02/20 06:36:12;;;;;;;22.07;10.15;;;;;;;1.75;73.94;100083.07;1670547;84;21145;-75
2022/02/20 06:38:38;;;;;;;23.25;10.28;;;;;;;1.82;73.95;100083.36;1670633;84;21093;-75
2022/02/20 06:41:09;;;;;;;21.48;10.32;;;;;;;1.88;73.96;100080.67;1670661;84;21750;-75
2022/02/20 06:43:33;;;;;;;29.37;11.38;;;;;;;1.94;73.94;100072.30;1671044;83;21074;-74
2022/02/20 06:46:00;;;;;;;21.50;8.73;;;;;;;1.97;73.80;100078.95;1670511;85;21050;-74
2022/02/20 06:48:27;;;;;;;23.77;8.45;;;;;;;1.97;73.69;100067.27;1670828;85;21175;-75
2022/02/20 06:50:54;;;;;;;18.32;6.33;;;;;;;1.97;73.62;100065.97;1670795;85;21070;-75
2022/02/20 06:53:20;;;;;;;13.88;7.12;;;;;;;1.96;73.62;100065.89;1670651;85;21750;-76
2022/02/20 06:55:47;;;;;;;18.17;6.65;;;;;;;1.94;73.60;100065.81;1670629;85;21090;-76
2022/02/20 06:58:14;;;;;;;24.60;8.35;;;;;;;1.96;73.63;100058.10;1670576;85;21112;-74
2022/02/20 07:00:40;;;;;;;18.25;6.65;;;;;;;1.98;73.68;100059.95;1670609;85;21264;-75
2022/02/20 07:03:07;;;;;;;22.42;7.40;;;;;;;1.98;73.67;100059.95;1670628;85;21540;-75
2022/02/20 07:05:33;;;;;;;17.30;6.67;;;;;;;2.03;73.72;100060.19;1670736;85;21755;-75
2022/02/20 07:08:00;;;;;;;30.52;10.50;;;;;;;2.07;73.76;100056.91;1670567;85;21078;-75
2022/02/20 07:10:27;;;;;;;26.52;9.40;;;;;;;2.12;73.75;100057.99;1670788;85;21130;-75
2022/02/20 07:12:53;;;;;;;22.77;9.28;;;;;;;2.15;73.73;100060.75;1670921;85;21181;-75
2022/02/20 07:15:20;;;;;;;17.20;7.17;;;;;;;2.18;73.73;100054.80;1670912;85;21137;-75
2022/02/20 07:17:47;;;;;;;15.05;5.50;;;;;;;2.21;73.73;100061.45;1671025;85;22619;-75
2022/02/20 07:20:13;;;;;;;26.05;10.35;;;;;;;2.24;73.76;100060.31;1670673;85;21560;-75
2022/02/20 07:22:40;;;;;;;11.25;5.08;;;;;;;2.29;73.81;100060.09;1670919;85;21139;-75
2022/02/20 07:25:08;;;;;;;18.60;7.35;;;;;;;2.34;73.80;100063.38;1670917;84;21106;-75
2022/02/20 07:27:41;;;;;;;14.70;6.30;;;;;;;2.42;73.79;100070.27;1670834;85;21090;-75
2022/02/20 07:30:08;;;;;;;16.80;7.08;;;;;;;2.48;73.79;100062.75;1670756;85;21759;-74
2022/02/20 07:32:35;;;;;;;21.12;9.05;;;;;;;2.57;73.77;100065.27;1670494;85;21126;-74
2022/02/20 07:35:03;;;;;;;27.85;9.48;;;;;;;2.61;73.69;100055.11;1670458;85;21082;-75
2022/02/20 07:37:29;;;;;;;25.85;9.63;;;;;;;2.64;73.63;100047.44;1670716;84;21817;-75
2022/02/20 07:39:56;;;;;;;26.02;10.05;;;;;;;2.68;73.59;100048.46;1670636;85;21129;-75
2022/02/20 07:42:23;;;;;;;30.10;11.35;;;;;;;2.70;73.60;100046.82;1670642;84;21684;-75
2022/02/20 07:44:51;;;;;;;26.57;10.32;;;;;;;2.74;73.62;100046.16;1670715;84;21105;-75
2022/02/20 07:47:17;;;;;;;43.52;17.92;;;;;;;2.77;73.63;100046.28;1670651;84;21077;-75
2022/02/20 07:49:44;;;;;;;52.05;19.62;;;;;;;2.85;73.65;100049.22;1670799;85;21089;-75
2022/02/20 07:52:11;;;;;;;42.98;17.98;;;;;;;2.90;73.65;100051.63;1670783;84;21160;-75
2022/02/20 07:54:37;;;;;;;29.80;14.07;;;;;;;2.96;73.59;100045.39;1671009;85;21759;-75
2022/02/20 07:57:04;;;;;;;22.87;10.20;;;;;;;3.02;73.57;100043.47;1670361;84;21081;-75
2022/02/20 07:59:30;;;;;;;20.55;9.15;;;;;;;3.09;73.62;100041.20;1670502;85;21054;-75
2022/02/20 08:01:57;;;;;;;18.40;6.92;;;;;;;3.19;73.61;100041.21;1670526;84;21121;-75
2022/02/20 08:04:24;;;;;;;20.20;10.53;;;;;;;3.28;73.67;100040.30;1670532;84;21168;-74
2022/02/20 08:06:52;;;;;;;20.32;11.25;;;;;;;3.38;73.68;100030.27;1670596;85;21758;-74
2022/02/20 08:09:18;;;;;;;22.93;10.35;;;;;;;3.49;73.57;100037.72;1670582;84;21077;-74
2022/02/20 08:11:45;;;;;;;25.60;13.03;;;;;;;3.60;73.52;100035.53;1670658;84;21098;-74
2022/02/20 08:14:12;;;;;;;27.20;13.10;;;;;;;3.68;73.42;100040.66;1670478;85;21140;-75
2022/02/20 08:16:38;;;;;;;21.70;10.55;;;;;;;3.78;73.44;100043.64;1670648;85;21085;-75
2022/02/20 08:19:05;;;;;;;18.05;9.60;;;;;;;3.97;73.60;100047.88;1670406;84;21161;-75
2022/02/20 08:21:32;;;;;;;18.30;10.58;;;;;;;4.21;73.65;100052.75;1670501;84;21035;-74
2022/02/20 08:23:58;;;;;;;22.15;15.30;;;;;;;4.37;73.41;100053.34;1670502;84;21583;-74
2022/02/20 08:26:25;;;;;;;21.77;14.15;;;;;;;4.46;73.10;100048.06;1670603;84;21086;-74
2022/02/20 08:28:51;;;;;;;15.80;10.72;;;;;;;4.56;73.00;100039.30;1670555;84;21150;-74
2022/02/20 08:31:18;;;;;;;11.15;7.75;;;;;;;4.74;73.05;100039.98;1670488;85;21708;-74
2022/02/20 08:33:45;;;;;;;18.25;8.78;;;;;;;4.95;73.04;100042.91;1663589;85;21122;-74
2022/02/20 08:36:11;;;;;;;11.22;6.17;;;;;;;5.13;72.80;100049.21;1658151;85;21120;-74
2022/02/20 08:38:38;;;;;;;11.57;5.97;;;;;;;5.18;72.44;100057.67;1658561;85;21185;-75
2022/02/20 08:41:05;;;;;;;6.80;3.85;;;;;;;5.22;72.37;100060.86;1658381;85;21109;-75
2022/02/20 08:43:31;;;;;;;9.78;4.62;;;;;;;5.23;72.42;100065.22;1658573;85;22524;-76
2022/02/20 08:45:58;;;;;;;6.72;4.12;;;;;;;5.27;72.39;100070.13;1658681;85;21090;-75
2022/02/20 08:48:24;;;;;;;9.75;3.85;;;;;;;5.30;72.28;100069.38;1658611;85;21158;-75
2022/02/20 08:50:51;;;;;;;9.83;3.65;;;;;;;5.27;72.20;100074.05;1658513;85;21598;-75
2022/02/20 08:53:18;;;;;;;5.78;3.17;;;;;;;5.24;72.12;100063.52;1658540;85;21436;-75
2022/02/20 08:55:45;;;;;;;8.90;3.40;;;;;;;5.20;72.12;100062.91;1658491;85;21785;-75
2022/02/20 08:58:11;;;;;;;7.58;3.55;;;;;;;5.19;72.10;100059.43;1658408;85;21096;-75
2022/02/20 09:00:38;;;;;;;5.92;3.62;;;;;;;5.25;72.32;100062.28;1658482;85;21066;-75
2022/02/20 09:03:05;;;;;;;6.37;3.55;;;;;;;5.43;72.39;100061.13;1658461;85;21667;-75
2022/02/20 09:05:31;;;;;;;5.25;2.98;;;;;;;5.53;72.22;100061.91;1658687;85;21035;-75
2022/02/20 09:07:58;;;;;;;7.47;4.05;;;;;;;5.63;72.13;100060.48;1658670;86;22492;-75
2022/02/20 09:10:25;;;;;;;7.12;3.33;;;;;;;5.67;72.00;100068.01;1658804;85;21199;-75
2022/02/20 09:12:51;;;;;;;7.42;3.52;;;;;;;5.71;71.92;100058.16;1659044;85;21086;-75
2022/02/20 09:15:18;;;;;;;6.25;3.50;;;;;;;5.74;71.87;100066.08;1658836;85;21078;-75
2022/02/20 09:17:45;;;;;;;7.25;3.80;;;;;;;5.79;71.80;100064.09;1659053;86;21054;-75
2022/02/20 09:20:12;;;;;;;5.40;3.27;;;;;;;5.82;71.69;100067.24;1658727;85;21800;-75
2022/02/20 09:22:41;;;;;;;6.15;3.25;;;;;;;5.89;71.72;100069.19;1658717;85;21560;-75
2022/02/20 09:25:09;;;;;;;5.87;2.98;;;;;;;5.96;71.61;100059.88;1658769;86;21607;-75
2022/02/20 09:27:36;;;;;;;6.08;3.60;;;;;;;6.07;71.76;100065.03;1658608;86;21134;-75
2022/02/20 09:30:04;;;;;;;6.50;2.87;;;;;;;6.33;71.81;100064.98;1658940;85;21083;-75
2022/02/20 09:32:30;;;;;;;5.20;3.02;;;;;;;6.55;71.69;100059.95;1658766;85;22531;-75
2022/02/20 09:34:57;;;;;;;126.18;48.15;;;;;;;6.73;71.37;100057.89;1669134;84;21149;-75
2022/02/20 09:37:25;;;;;;;289.32;113.52;;;;;;;6.95;71.34;100051.98;1670570;85;21674;-75
2022/02/20 09:39:51;;;;;;;116.85;46.18;;;;;;;7.15;71.08;100051.21;1670724;85;21548;-75
2022/02/20 09:42:18;;;;;;;76.72;37.17;;;;;;;7.24;70.73;100051.47;1670452;84;21153;-75
2022/02/20 09:44:45;;;;;;;147.57;72.35;;;;;;;7.27;70.38;100043.70;1670642;85;21840;-75
2022/02/20 09:47:12;;;;;;;55.30;29.12;;;;;;;7.31;70.26;100051.22;1670596;84;21578;-75
2022/02/20 09:49:39;;;;;;;114.32;56.48;;;;;;;7.42;70.16;100048.90;1670646;84;21094;-75
2022/02/20 09:52:06;;;;;;;45.85;24.75;;;;;;;7.58;70.24;100049.34;1670593;84;21077;-75
2022/02/20 09:54:33;;;;;;;44.60;22.85;;;;;;;7.67;69.90;100049.97;1670544;84;21568;-75
2022/02/20 09:56:59;;;;;;;115.45;60.98;;;;;;;7.65;69.59;100052.11;1670679;85;21695;-75
2022/02/20 09:59:26;;;;;;;47.58;28.67;;;;;;;7.58;69.21;100057.59;1670716;85;21133;-75
2022/02/20 10:02:10;;;;;;;62.58;28.40;;;;;;;7.54;69.34;100064.91;1670634;85;21109;-75
2022/02/20 10:04:46;;;;;;;52.05;27.82;;;;;;;7.42;68.89;100063.30;1670841;85;21089;-75
2022/02/20 10:07:35;;;;;;;40.95;24.45;;;;;;;7.28;68.91;100058.98;1670932;85;21070;-75
2022/02/20 10:10:15;;;;;;;10.08;7.22;;;;;;;7.23;69.04;100058.88;1670687;85;21761;-75
2022/02/20 10:12:43;;;;;;;5.03;3.90;;;;;;;7.29;69.27;100059.46;1670905;84;21067;-75
2022/02/20 10:15:29;;;;;;;5.00;3.77;;;;;;;7.43;69.17;100062.44;1670718;85;21066;-75
2022/02/20 10:18:01;;;;;;;4.85;3.40;;;;;;;7.58;69.06;100063.74;1584522;89;21163;-75
2022/02/20 10:20:28;;;;;;;6.35;4.20;;;;;;;7.59;68.51;100068.55;1582252;90;21150;-75
2022/02/20 10:22:55;;;;;;;8.73;7.83;;;;;;;7.53;68.54;100074.52;1558822;90;21845;-75
2022/02/20 10:25:21;;;;;;;5.08;3.83;;;;;;;7.62;68.77;100067.73;1558724;90;21135;-76
2022/02/20 10:27:51;;;;;;;5.25;3.72;;;;;;;7.71;68.50;100069.28;1558820;91;21135;-75
2022/02/20 10:30:22;;;;;;;4.08;3.45;;;;;;;7.73;68.27;100063.25;1582932;89;21132;-75
2022/02/20 10:33:16;;;;;;;5.12;4.62;;;;;;;7.66;68.04;100068.27;1558812;90;21127;-75
2022/02/20 10:35:48;;;;;;;6.00;5.35;;;;;;;7.73;68.12;100068.49;1555936;90;22048;-75
2022/02/20 10:38:24;;;;;;;5.57;4.43;;;;;;;7.74;68.04;100066.75;1592832;88;21604;-75
2022/02/20 10:40:55;;;;;;;5.80;3.08;;;;;;;7.81;68.14;100065.16;1592928;88;21906;-75
2022/02/20 10:43:37;;;;;;;3.72;2.75;;;;;;;7.93;68.06;100074.64;1592800;90;21113;-75
2022/02/20 10:46:16;;;;;;;4.37;2.80;;;;;;;8.02;68.03;100075.30;1592675;90;21161;-75
2022/02/20 10:48:46;;;;;;;4.75;3.42;;;;;;;8.10;67.49;100078.98;1592902;89;21781;-76
2022/02/20 10:51:18;;;;;;;3.90;3.40;;;;;;;8.08;67.33;100075.02;1592613;90;21125;-75
2022/02/20 10:53:46;;;;;;;5.30;3.33;;;;;;;8.06;67.25;100075.84;1592820;88;21490;-75
2022/02/20 10:56:16;;;;;;;4.67;3.12;;;;;;;8.02;67.13;100063.08;1608846;89;21570;-75
2022/02/20 10:58:44;;;;;;;4.35;3.02;;;;;;;7.92;66.96;100070.23;1608838;87;21112;-76
2022/02/20 11:01:25;;;;;;;4.95;3.40;;;;;;;7.85;66.94;100077.08;1607234;88;21788;-75
2022/02/20 11:04:10;;;;;;;5.03;3.52;;;;;;;7.79;67.02;100075.62;1636274;86;21538;-75
2022/02/20 11:06:41;;;;;;;5.92;3.77;;;;;;;7.74;66.83;100079.84;1632946;87;21330;-75
2022/02/20 11:09:08;;;;;;;6.00;3.47;;;;;;;7.69;66.99;100077.09;1635697;87;21558;-75
2022/02/20 11:11:40;;;;;;;4.60;3.75;;;;;;;7.68;66.98;100076.65;1636529;87;21101;-75
2022/02/20 11:14:13;;;;;;;4.90;3.20;;;;;;;7.69;66.90;100069.66;1635918;86;21826;-75
2022/02/20 11:16:49;;;;;;;4.87;3.37;;;;;;;7.68;66.72;100063.55;1635954;86;21065;-75
2022/02/20 11:19:20;;;;;;;5.70;3.60;;;;;;;7.71;66.67;100062.73;1636277;86;21112;-75
2022/02/20 11:21:48;;;;;;;7.00;3.58;;;;;;;7.74;66.67;100065.01;1636336;87;21186;-75
2022/02/20 11:24:14;;;;;;;5.55;3.75;;;;;;;7.83;66.84;100062.14;1636212;86;21366;-75
2022/02/20 11:26:45;;;;;;;7.28;3.95;;;;;;;7.91;66.63;100057.56;1636222;86;22236;-75